Time;durP1;ratioP1;P1;durP2;ratioP2;P2;SDS_P1;SDS_P2;PMS_P1;PMS_P2;Temp;Humidity;BMP_temperature;BMP_pressure;BME280_temperature;BME280_humidity;BME280_pressure;Samples;Min_cycle;Max_cycle;Signal;HPM_P1;HPM_P2
2022/02/13 00:00:49;;;;;;;114.82;59.38;;;;;;;;;;4878264;29;20395;-75
2022/02/13 00:03:15;;;;;;;105.60;58.17;;;;;;;;;;4878234;29;20395;-75
2022/02/13 00:05:41;;;;;;;76.53;39.97;;;;;;;;;;4889495;29;20067;-75
2022/02/13 00:08:07;;;;;;;48.63;28.70;;;;;;;;;;4894264;29;20073;-76
2022/02/13 00:10:33;;;;;;;31.42;17.80;;;;;;;;;;4886459;29;20107;-75
2022/02/13 00:12:59;;;;;;;27.70;12.93;;;;;;;;;;4882434;29;20028;-76
2022/02/13 00:15:25;;;;;;;19.90;9.82;;;;;;;;;;4878196;29;20071;-76
2022/02/13 00:17:51;;;;;;;23.20;12.50;;;;;;;;;;4878423;29;20044;-75
2022/02/13 00:20:17;;;;;;;23.40;11.43;;;;;;;;;;4888929;29;20033;-75
2022/02/13 00:22:43;;;;;;;22.02;11.38;;;;;;;;;;4883180;29;20048;-76
2022/02/13 00:25:09;;;;;;;17.67;8.32;;;;;;;;;;4889807;29;20033;-76
2022/02/13 00:27:37;;;;;;;18.40;8.45;;;;;;;;;;4882294;29;20033;-76
2022/02/13 00:30:03;;;;;;;32.63;14.63;;;;;;;;;;4879831;29;20909;-76
2022/02/13 00:32:29;;;;;;;34.60;18.33;;;;;;;;;;4896584;29;20064;-76
2022/02/13 00:34:55;;;;;;;33.35;16.25;;;;;;;;;;4890378;29;20037;-76
2022/02/13 00:37:21;;;;;;;29.00;15.57;;;;;;;;;;4877353;29;20057;-75
2022/02/13 00:39:47;;;;;;;29.33;14.02;;;;;;;;;;4877648;29;20044;-76
2022/02/13 00:42:13;;;;;;;32.08;15.48;;;;;;;;;;4893563;29;20351;-76
2022/02/13 00:44:39;;;;;;;35.03;16.55;;;;;;;;;;4891510;29;20075;-76
2022/02/13 00:47:05;;;;;;;38.78;16.77;;;;;;;;;;4890586;29;20586;-76
2022/02/13 00:49:32;;;;;;;31.10;14.63;;;;;;;;;;4895507;29;20033;-76
2022/02/13 00:51:58;;;;;;;29.75;12.40;;;;;;;;;;4888806;29;20032;-75
2022/02/13 00:54:24;;;;;;;24.30;10.23;;;;;;;;;;4880253;29;20481;-76
2022/02/13 00:56:50;;;;;;;23.08;9.45;;;;;;;;;;4885798;29;20032;-75
2022/02/13 00:59:16;;;;;;;20.98;9.30;;;;;;;;;;4876753;29;20174;-76
2022/02/13 01:01:42;;;;;;;22.13;10.10;;;;;;;;;;4876682;29;20510;-76
2022/02/13 01:04:08;;;;;;;24.83;11.05;;;;;;;;;;4876597;29;20037;-76
2022/02/13 01:06:35;;;;;;;25.73;12.02;;;;;;;;;;4876858;29;20539;-76
2022/02/13 01:09:01;;;;;;;24.27;11.93;;;;;;;;;;4890972;29;20463;-76
2022/02/13 01:11:27;;;;;;;37.40;19.90;;;;;;;;;;4889308;29;20163;-76
2022/02/13 01:13:54;;;;;;;33.97;18.17;;;;;;;;;;4877111;29;20108;-75
2022/02/13 01:16:20;;;;;;;29.90;16.40;;;;;;;;;;4877003;29;20033;-75
2022/02/13 01:18:46;;;;;;;30.00;17.92;;;;;;;;;;4875978;29;20056;-75
2022/02/13 01:21:12;;;;;;;31.38;16.17;;;;;;;;;;4876435;29;20045;-75
2022/02/13 01:23:45;;;;;;;24.88;9.90;;;;;;;;;;4876026;29;20933;-75
2022/02/13 01:26:11;;;;;;;19.70;9.77;;;;;;;;;;4880087;29;20068;-75
2022/02/13 01:28:37;;;;;;;20.95;10.50;;;;;;;;;;4890111;29;20036;-75
2022/02/13 01:31:04;;;;;;;18.42;8.85;;;;;;;;;;4894843;29;20049;-75
2022/02/13 01:33:30;;;;;;;12.57;5.93;;;;;;;;;;4882655;29;20032;-75
2022/02/13 01:35:56;;;;;;;15.85;7.10;;;;;;;;;;4894773;29;20079;-75
2022/02/13 01:38:22;;;;;;;23.88;10.88;;;;;;;;;;4878875;29;20081;-75
2022/02/13 01:40:48;;;;;;;20.30;10.52;;;;;;;;;;4888895;29;20063;-75
2022/02/13 01:43:14;;;;;;;23.58;11.38;;;;;;;;;;4894645;29;20072;-76
2022/02/13 01:45:40;;;;;;;22.23;10.63;;;;;;;;;;4881106;29;20451;-75
2022/02/13 01:48:09;;;;;;;19.80;9.30;;;;;;;;;;4875188;29;20075;-75
2022/02/13 01:50:36;;;;;;;13.60;6.10;;;;;;;;;;4875562;29;20556;-75
2022/02/13 01:53:03;;;;;;;13.23;5.82;;;;;;;;;;4875928;29;20055;-76
2022/02/13 01:55:29;;;;;;;12.05;5.22;;;;;;;;;;4892901;29;20039;-75
2022/02/13 01:57:57;;;;;;;18.33;8.15;;;;;;;;;;4877706;29;20040;-75
2022/02/13 02:00:23;;;;;;;25.20;11.52;;;;;;;;;;4875728;29;20040;-75
2022/02/13 02:02:49;;;;;;;22.45;10.98;;;;;;;;;;4876144;29;20093;-75
2022/02/13 02:05:15;;;;;;;20.17;9.00;;;;;;;;;;4878243;29;20036;-75
2022/02/13 02:07:41;;;;;;;21.50;9.82;;;;;;;;;;4875717;29;20786;-74
2022/02/13 02:10:07;;;;;;;15.80;6.03;;;;;;;;;;4875513;29;20029;-75
2022/02/13 02:12:35;;;;;;;14.68;5.57;;;;;;;;;;4876043;29;20044;-75
2022/02/13 02:15:01;;;;;;;12.30;5.28;;;;;;;;;;4878705;29;20037;-75
2022/02/13 02:17:27;;;;;;;16.55;6.80;;;;;;;;;;4877040;29;20045;-75
2022/02/13 02:19:53;;;;;;;13.15;5.25;;;;;;;;;;4878933;29;20510;-75
2022/02/13 02:22:19;;;;;;;11.43;5.10;;;;;;;;;;4875882;29;20044;-75
2022/02/13 02:24:46;;;;;;;13.57;6.97;;;;;;;;;;4874987;29;20040;-75
2022/02/13 02:27:12;;;;;;;16.38;6.80;;;;;;;;;;4879722;29;20471;-75
2022/02/13 02:29:38;;;;;;;12.68;5.75;;;;;;;;;;4884200;29;20112;-75
2022/02/13 02:32:05;;;;;;;12.50;5.35;;;;;;;;;;4878650;29;20052;-75
2022/02/13 02:34:31;;;;;;;12.25;5.68;;;;;;;;;;4875490;29;20033;-76
2022/02/13 02:36:57;;;;;;;17.40;9.32;;;;;;;;;;4875213;29;20061;-75
2022/02/13 02:39:23;;;;;;;19.50;7.20;;;;;;;;;;4875455;29;20040;-75
2022/02/13 02:41:50;;;;;;;17.80;7.22;;;;;;;;;;4886160;29;20083;-75
2022/02/13 02:44:16;;;;;;;15.50;8.05;;;;;;;;;;4885890;29;20033;-75
2022/02/13 02:46:42;;;;;;;13.50;6.13;;;;;;;;;;4884083;29;20040;-75
2022/02/13 02:49:08;;;;;;;9.80;3.80;;;;;;;;;;4884107;29;20034;-75
2022/02/13 02:51:34;;;;;;;13.95;6.78;;;;;;;;;;4875525;29;20055;-75
2022/02/13 02:54:00;;;;;;;13.77;8.13;;;;;;;;;;4884219;29;20029;-75
2022/02/13 02:56:26;;;;;;;13.40;6.88;;;;;;;;;;4894275;29;20076;-75
2022/02/13 02:58:51;;;;;;;15.50;6.70;;;;;;;;;;4886785;29;20033;-75
2022/02/13 03:01:18;;;;;;;9.07;4.65;;;;;;;;;;4875571;29;20049;-75
2022/02/13 03:03:44;;;;;;;13.85;4.88;;;;;;;;;;4874731;29;20036;-75
2022/02/13 03:06:10;;;;;;;11.32;4.53;;;;;;;;;;4874998;29;20044;-75
2022/02/13 03:08:36;;;;;;;14.45;5.82;;;;;;;;;;4876550;29;20444;-75
2022/02/13 03:11:02;;;;;;;11.25;4.55;;;;;;;;;;4893889;29;20064;-75
2022/02/13 03:13:28;;;;;;;11.93;4.43;;;;;;;;;;4875311;29;20029;-75
2022/02/13 03:15:54;;;;;;;13.45;4.90;;;;;;;;;;4877169;29;20045;-75
2022/02/13 03:18:20;;;;;;;9.95;3.40;;;;;;;;;;4878513;29;20081;-75
2022/02/13 03:20:46;;;;;;;10.13;2.60;;;;;;;;;;4878333;29;20047;-75
2022/02/13 03:23:13;;;;;;;7.82;2.95;;;;;;;;;;4878531;29;20089;-75
2022/02/13 03:25:39;;;;;;;8.18;3.33;;;;;;;;;;4891449;29;20043;-75
2022/02/13 03:28:05;;;;;;;6.57;3.10;;;;;;;;;;4885221;29;20029;-75
2022/02/13 03:30:31;;;;;;;7.80;3.00;;;;;;;;;;4883532;29;20579;-75
2022/02/13 03:32:57;;;;;;;7.95;2.67;;;;;;;;;;4895497;29;20068;-75
2022/02/13 03:35:23;;;;;;;8.52;2.67;;;;;;;;;;4896848;29;20051;-75
2022/02/13 03:37:50;;;;;;;7.13;2.28;;;;;;;;;;4893399;29;20057;-75
2022/02/13 03:40:16;;;;;;;7.65;2.30;;;;;;;;;;4882434;29;20474;-75
2022/02/13 03:42:43;;;;;;;8.07;2.80;;;;;;;;;;4884575;29;20037;-75
2022/02/13 03:45:09;;;;;;;7.22;2.85;;;;;;;;;;4877729;29;20391;-75
2022/02/13 03:47:35;;;;;;;7.00;2.28;;;;;;;;;;4878322;29;20037;-75
2022/02/13 03:50:01;;;;;;;6.57;3.15;;;;;;;;;;4877897;29;20040;-75
2022/02/13 03:52:28;;;;;;;6.72;2.55;;;;;;;;;;4881705;29;20033;-75
2022/02/13 03:54:54;;;;;;;6.28;2.53;;;;;;;;;;4894467;29;20112;-75
2022/02/13 03:57:20;;;;;;;7.75;2.60;;;;;;;;;;4897384;29;20079;-75
2022/02/13 03:59:46;;;;;;;5.75;2.50;;;;;;;;;;4888077;29;20060;-75
2022/02/13 04:02:12;;;;;;;6.65;2.47;;;;;;;;;;4886630;29;20440;-75
2022/02/13 04:04:38;;;;;;;5.85;2.22;;;;;;;;;;4877841;29;20043;-76
2022/02/13 04:07:04;;;;;;;8.18;3.20;;;;;;;;;;4892654;29;20391;-75
2022/02/13 04:09:31;;;;;;;8.68;3.28;;;;;;;;;;4896419;29;20080;-75
2022/02/13 04:11:57;;;;;;;9.00;3.10;;;;;;;;;;4887407;29;20037;-76
2022/02/13 04:14:23;;;;;;;9.10;3.85;;;;;;;;;;4878016;29;20097;-75
2022/02/13 04:16:49;;;;;;;9.50;2.65;;;;;;;;;;4878124;29;20683;-75
2022/02/13 04:19:15;;;;;;;9.32;3.30;;;;;;;;;;4877750;29;20036;-75
2022/02/13 04:21:41;;;;;;;8.60;2.90;;;;;;;;;;4877669;29;20041;-75
2022/02/13 04:24:08;;;;;;;7.10;3.17;;;;;;;;;;4885949;29;20626;-75
2022/02/13 04:26:34;;;;;;;7.93;2.45;;;;;;;;;;4878542;29;20073;-75
2022/02/13 04:29:00;;;;;;;11.00;3.53;;;;;;;;;;4877301;29;20029;-75
2022/02/13 04:31:26;;;;;;;8.48;3.05;;;;;;;;;;4884006;29;20047;-76
2022/02/13 04:33:52;;;;;;;9.02;2.97;;;;;;;;;;4877005;29;20041;-75
2022/02/13 04:36:18;;;;;;;7.13;3.15;;;;;;;;;;4876879;29;20112;-75
2022/02/13 04:38:44;;;;;;;9.02;3.35;;;;;;;;;;4877198;29;20112;-75
2022/02/13 04:41:10;;;;;;;10.55;3.45;;;;;;;;;;4886808;29;20068;-75
2022/02/13 04:43:36;;;;;;;13.07;4.20;;;;;;;;;;4884824;29;20055;-75
2022/02/13 04:46:02;;;;;;;12.75;4.70;;;;;;;;;;4895864;29;20468;-75
2022/02/13 04:48:28;;;;;;;14.93;5.22;;;;;;;;;;4887477;29;20033;-75
2022/02/13 04:50:54;;;;;;;12.48;3.95;;;;;;;;;;4877752;29;20509;-75
2022/02/13 04:53:20;;;;;;;12.85;3.95;;;;;;;;;;4882084;29;20020;-74
2022/02/13 04:55:46;;;;;;;11.93;3.80;;;;;;;;;;4889722;29;20468;-75
2022/02/13 04:58:13;;;;;;;8.35;3.42;;;;;;;;;;4876912;29;20479;-76
2022/02/13 05:00:39;;;;;;;10.07;3.22;;;;;;;;;;4876569;29;20088;-75
2022/02/13 05:03:05;;;;;;;11.52;3.25;;;;;;;;;;4883919;29;20116;-75
2022/02/13 05:05:31;;;;;;;10.57;3.63;;;;;;;;;;4895774;29;20111;-76
2022/02/13 05:07:57;;;;;;;9.02;3.58;;;;;;;;;;4895316;29;20036;-75
2022/02/13 05:10:23;;;;;;;9.00;2.72;;;;;;;;;;4886293;29;20032;-75
2022/02/13 05:12:49;;;;;;;10.95;2.95;;;;;;;;;;4876999;29;20037;-75
2022/02/13 05:15:16;;;;;;;5.07;2.08;;;;;;;;;;4887739;29;20067;-75
2022/02/13 05:17:42;;;;;;;8.70;2.50;;;;;;;;;;4877046;29;20408;-75
2022/02/13 05:20:09;;;;;;;14.80;3.40;;;;;;;;;;4882892;29;20060;-75
2022/02/13 05:22:35;;;;;;;9.02;2.75;;;;;;;;;;4876673;29;20606;-75
2022/02/13 05:25:01;;;;;;;8.77;2.67;;;;;;;;;;4879299;29;20507;-75
2022/02/13 05:27:27;;;;;;;10.35;4.88;;;;;;;;;;4876683;29;20432;-75
2022/02/13 05:29:53;;;;;;;9.85;3.55;;;;;;;;;;4886168;29;20033;-76
2022/02/13 05:32:19;;;;;;;10.90;3.40;;;;;;;;;;4876578;29;20041;-75
2022/02/13 05:34:45;;;;;;;9.65;2.80;;;;;;;;;;4881158;29;20048;-75
2022/02/13 05:37:11;;;;;;;6.25;2.72;;;;;;;;;;4894524;29;20097;-76
2022/02/13 05:39:37;;;;;;;10.85;3.47;;;;;;;;;;4890951;29;20447;-75
2022/02/13 05:42:03;;;;;;;12.13;3.88;;;;;;;;;;4876067;29;20125;-75
2022/02/13 05:44:29;;;;;;;15.55;6.72;;;;;;;;;;4858204;29;20400;-75
2022/02/13 05:46:55;;;;;;;15.73;7.20;;;;;;;;;;4884052;29;20036;-75
2022/02/13 05:49:21;;;;;;;23.50;8.13;;;;;;;;;;4893758;29;20036;-75
2022/02/13 05:51:47;;;;;;;16.65;6.97;;;;;;;;;;4879231;29;20368;-75
2022/02/13 05:54:13;;;;;;;8.55;3.83;;;;;;;;;;4876027;29;20089;-75
2022/02/13 05:56:41;;;;;;;12.13;4.75;;;;;;;;;;4890490;29;20044;-75
2022/02/13 05:59:07;;;;;;;13.68;5.68;;;;;;;;;;4894306;29;20041;-75
2022/02/13 06:01:34;;;;;;;15.10;4.88;;;;;;;;;;4876295;29;20048;-75
2022/02/13 06:03:59;;;;;;;9.55;3.22;;;;;;;;;;4876418;29;20032;-76
2022/02/13 06:06:25;;;;;;;9.20;3.75;;;;;;;;;;4875709;29;20037;-75
2022/02/13 06:08:51;;;;;;;10.43;4.80;;;;;;;;;;4875779;29;20609;-76
2022/02/13 06:11:17;;;;;;;12.02;5.07;;;;;;;;;;4876255;29;20177;-75
2022/02/13 06:13:43;;;;;;;8.57;3.05;;;;;;;;;;4875664;29;20760;-75
2022/02/13 06:16:09;;;;;;;14.10;5.97;;;;;;;;;;4876221;29;20118;-75
2022/02/13 06:18:36;;;;;;;29.92;15.13;;;;;;;;;;4879228;29;20216;-75
2022/02/13 06:21:02;;;;;;;18.40;6.97;;;;;;;;;;4880133;29;20041;-75
2022/02/13 06:23:28;;;;;;;25.13;11.10;;;;;;;;;;4883429;29;20048;-76
2022/02/13 06:25:54;;;;;;;17.17;7.25;;;;;;;;;;4880084;29;20060;-75
2022/02/13 06:28:21;;;;;;;18.20;8.25;;;;;;;;;;4885998;29;20035;-76
2022/02/13 06:30:47;;;;;;;20.75;11.85;;;;;;;;;;4875832;29;20029;-76
2022/02/13 06:33:14;;;;;;;24.65;12.05;;;;;;;;;;4891919;29;20564;-75
2022/02/13 06:35:41;;;;;;;28.58;14.77;;;;;;;;;;4875788;29;20501;-75
2022/02/13 06:38:11;;;;;;;26.75;14.57;;;;;;;;;;4877029;29;20052;-75
2022/02/13 06:40:37;;;;;;;20.40;7.55;;;;;;;;;;4875284;29;20043;-76
2022/02/13 06:43:03;;;;;;;20.23;8.32;;;;;;;;;;4882069;29;20040;-75
2022/02/13 06:45:29;;;;;;;15.57;7.75;;;;;;;;;;4875172;29;20497;-75
2022/02/13 06:47:55;;;;;;;19.70;9.73;;;;;;;;;;4880401;29;20032;-76
2022/02/13 06:50:21;;;;;;;28.70;14.65;;;;;;;;;;4881681;29;20048;-75
2022/02/13 06:52:47;;;;;;;29.88;14.57;;;;;;;;;;4889909;29;20032;-74
2022/02/13 06:55:13;;;;;;;36.72;18.00;;;;;;;;;;4879437;29;20045;-75
2022/02/13 06:57:43;;;;;;;31.67;16.65;;;;;;;;;;4885581;29;20491;-76
2022/02/13 07:00:10;;;;;;;37.88;19.55;;;;;;;;;;4887246;29;20177;-76
2022/02/13 07:02:36;;;;;;;52.92;30.52;;;;;;;;;;4882211;29;20491;-75
2022/02/13 07:05:02;;;;;;;62.13;41.55;;;;;;;;;;4882857;29;20037;-75
2022/02/13 07:07:28;;;;;;;50.72;33.47;;;;;;;;;;4885327;29;20044;-76
2022/02/13 07:09:54;;;;;;;43.92;25.92;;;;;;;;;;4868331;29;20040;-75
2022/02/13 07:12:20;;;;;;;37.92;19.60;;;;;;;;;;4881969;29;20032;-75
2022/02/13 07:14:46;;;;;;;25.40;14.43;;;;;;;;;;4883962;29;20037;-76
2022/02/13 07:17:13;;;;;;;25.27;12.50;;;;;;;;;;4888862;29;20045;-76
2022/02/13 07:19:39;;;;;;;21.65;11.10;;;;;;;;;;4890780;29;20035;-75
2022/02/13 07:22:07;;;;;;;22.48;12.95;;;;;;;;;;4885633;29;20052;-75
2022/02/13 07:24:37;;;;;;;22.30;10.85;;;;;;;;;;4887430;29;20041;-76
2022/02/13 07:27:04;;;;;;;24.33;12.57;;;;;;;;;;4879109;29;20041;-75
2022/02/13 07:29:30;;;;;;;22.40;10.85;;;;;;;;;;4884394;29;20131;-76
2022/02/13 07:31:56;;;;;;;13.57;6.53;;;;;;;;;;4879295;29;20037;-75
2022/02/13 07:34:22;;;;;;;13.55;6.07;;;;;;;;;;4883937;29;20052;-76
2022/02/13 07:36:52;;;;;;;10.32;4.72;;;;;;;;;;4882251;29;20158;-75
2022/02/13 07:39:19;;;;;;;13.85;4.85;;;;;;;;;;4880640;29;20029;-75
2022/02/13 07:41:46;;;;;;;10.25;4.65;;;;;;;;;;4881919;29;20123;-75
2022/02/13 07:44:12;;;;;;;12.02;4.03;;;;;;;;;;4886266;29;20037;-75
2022/02/13 07:46:38;;;;;;;9.70;4.88;;;;;;;;;;4883208;29;20033;-75
2022/02/13 07:49:05;;;;;;;9.38;4.18;;;;;;;;;;4886102;29;20105;-75
2022/02/13 07:51:34;;;;;;;13.52;4.93;;;;;;;;;;4886849;29;20037;-76
2022/02/13 07:54:01;;;;;;;12.90;4.90;;;;;;;;;;4887644;29;20823;-76
2022/02/13 07:56:27;;;;;;;12.20;5.50;;;;;;;;;;4881837;29;20400;-76
2022/02/13 07:58:53;;;;;;;11.77;6.28;;;;;;;;;;4885382;29;20036;-75
2022/02/13 08:01:20;;;;;;;13.38;5.85;;;;;;;;;;4886418;29;20037;-76
2022/02/13 08:03:46;;;;;;;9.23;5.60;;;;;;;;;;4891713;29;20029;-76
2022/02/13 08:06:14;;;;;;;12.02;5.70;;;;;;;;;;4890932;29;20044;-76
2022/02/13 08:08:41;;;;;;;17.20;6.85;;;;;;;;;;4889701;29;20028;-76
2022/02/13 08:11:07;;;;;;;11.45;6.20;;;;;;;;;;4885412;29;20232;-76
2022/02/13 08:13:33;;;;;;;20.30;8.32;;;;;;;;;;4882424;29;20379;-75
2022/02/13 08:15:59;;;;;;;16.63;7.88;;;;;;;;;;4883608;29;20141;-76
2022/02/13 08:18:25;;;;;;;13.30;5.63;;;;;;;;;;4886009;29;20149;-76
2022/02/13 08:20:55;;;;;;;12.63;5.15;;;;;;;;;;4889354;29;20501;-76
2022/02/13 08:23:24;;;;;;;18.13;8.50;;;;;;;;;;4863193;29;20036;-76
2022/02/13 08:25:51;;;;;;;25.58;11.48;;;;;;;;;;4877492;29;20080;-76
2022/02/13 08:28:17;;;;;;;17.73;8.07;;;;;;;;;;4880979;29;20044;-76
2022/02/13 08:30:43;;;;;;;18.55;9.40;;;;;;;;;;4891043;29;20028;-75
2022/02/13 08:33:09;;;;;;;11.20;5.95;;;;;;;;;;4877727;29;20104;-76
2022/02/13 08:35:35;;;;;;;13.45;6.75;;;;;;;;;;4877822;29;20044;-76
2022/02/13 08:38:03;;;;;;;16.42;7.55;;;;;;;;;;4882801;29;20061;-76
2022/02/13 08:40:29;;;;;;;9.57;4.10;;;;;;;;;;4888519;29;20495;-76
2022/02/13 08:42:57;;;;;;;8.10;3.53;;;;;;;;;;4890152;29;20072;-76
2022/02/13 08:45:23;;;;;;;11.82;4.65;;;;;;;;;;4881080;29;20037;-76
2022/02/13 08:47:49;;;;;;;15.05;4.97;;;;;;;;;;4879912;29;20818;-76
2022/02/13 08:50:15;;;;;;;12.35;5.60;;;;;;;;;;4880748;29;20036;-75
2022/02/13 08:52:41;;;;;;;10.52;4.30;;;;;;;;;;4882249;29;20048;-76
2022/02/13 08:55:07;;;;;;;9.95;4.35;;;;;;;;;;4888030;29;20043;-75
2022/02/13 08:57:34;;;;;;;8.13;3.38;;;;;;;;;;4877586;29;20068;-76
2022/02/13 09:00:00;;;;;;;9.15;3.08;;;;;;;;;;4882701;29;20117;-76
2022/02/13 09:02:26;;;;;;;13.80;5.28;;;;;;;;;;4878518;29;20048;-76
2022/02/13 09:04:52;;;;;;;8.35;3.55;;;;;;;;;;4886047;29;20041;-76
2022/02/13 09:07:18;;;;;;;9.15;3.25;;;;;;;;;;4876911;29;20096;-75
2022/02/13 09:09:46;;;;;;;13.88;5.10;;;;;;;;;;4885202;29;20068;-76
2022/02/13 09:12:15;;;;;;;12.15;4.22;;;;;;;;;;4879628;29;20123;-76
2022/02/13 09:14:41;;;;;;;15.13;6.18;;;;;;;;;;4893020;29;20032;-75
2022/02/13 09:17:07;;;;;;;25.83;13.48;;;;;;;;;;4883632;29;20047;-76
2022/02/13 09:19:33;;;;;;;17.63;8.07;;;;;;;;;;4879940;29;20025;-76
2022/02/13 09:21:59;;;;;;;17.55;7.47;;;;;;;;;;4883208;29;20045;-76
2022/02/13 09:24:25;;;;;;;14.90;6.95;;;;;;;;;;4887080;29;20124;-76
2022/02/13 09:26:52;;;;;;;16.63;5.20;;;;;;;;;;4884349;29;20119;-76
2022/02/13 09:29:18;;;;;;;13.77;3.90;;;;;;;;;;4886888;29;20032;-76
2022/02/13 09:31:44;;;;;;;6.38;2.20;;;;;;;;;;4882635;29;20041;-76
2022/02/13 09:34:12;;;;;;;11.50;4.25;;;;;;;;;;4892392;29;20032;-76
2022/02/13 09:36:39;;;;;;;17.65;6.45;;;;;;;;;;4885757;29;20053;-76
2022/02/13 09:39:05;;;;;;;15.90;7.22;;;;;;;;;;4894748;29;20031;-76
2022/02/13 09:41:31;;;;;;;8.45;3.38;;;;;;;;;;4876460;29;20045;-76
2022/02/13 09:43:57;;;;;;;8.80;3.65;;;;;;;;;;4886455;29;20041;-76
2022/02/13 09:46:24;;;;;;;11.38;5.32;;;;;;;;;;4880096;29;20041;-76
2022/02/13 09:48:51;;;;;;;9.15;3.85;;;;;;;;;;4888400;29;20135;-76
2022/02/13 09:51:18;;;;;;;8.30;3.20;;;;;;;;;;4879289;29;20514;-76
2022/02/13 09:53:44;;;;;;;7.35;3.22;;;;;;;;;;4879938;29;20367;-76
2022/02/13 09:56:11;;;;;;;15.82;4.10;;;;;;;;;;4894594;29;20075;-76
2022/02/13 09:58:37;;;;;;;8.43;4.53;;;;;;;;;;4880416;29;20037;-76
2022/02/13 10:01:08;;;;;;;8.70;3.20;;;;;;;;;;4883174;29;20060;-76
2022/02/13 10:03:35;;;;;;;7.25;2.78;;;;;;;;;;4879637;29;20064;-76
2022/02/13 10:06:14;;;;;;;8.68;2.65;;;;;;;;;;4882334;29;20052;-76
2022/02/13 10:08:48;;;;;;;11.75;3.25;;;;;;;;;;4878772;29;20029;-76
2022/02/13 10:11:15;;;;;;;8.27;3.30;;;;;;;;;;4883618;29;20040;-76
2022/02/13 10:13:44;;;;;;;14.98;4.38;;;;;;;;;;4875853;29;20068;-76
2022/02/13 10:16:14;;;;;;;10.18;3.80;;;;;;;;;;4891535;29;20043;-76
2022/02/13 10:18:47;;;;;;;10.45;3.88;;;;;;;;;;4887115;29;20074;-76
2022/02/13 10:21:28;;;;;;;8.48;4.18;;;;;;;;;;4882446;29;20047;-77
2022/02/13 10:24:11;;;;;;;7.47;2.97;;;;;;;;;;4884975;29;20112;-74
2022/02/13 10:26:37;;;;;;;;;;;;;;;;;;4882292;29;20044;-76
2022/02/13 10:29:03;;;;;;;11.27;4.03;;;;;;;;;;4880402;29;20438;-76
2022/02/13 10:31:30;;;;;;;10.40;3.55;;;;;;;;;;4884126;29;20120;-76
2022/02/13 10:33:59;;;;;;;5.82;2.88;;;;;;;;;;4882064;29;20537;-76
2022/02/13 10:36:26;;;;;;;6.80;2.47;;;;;;;;;;4883791;29;20124;-76
2022/02/13 10:38:52;;;;;;;11.93;2.80;;;;;;;;;;4881362;29;20436;-76
2022/02/13 10:41:27;;;;;;;6.00;2.38;;;;;;;;;;4881098;29;20084;-76
2022/02/13 10:43:57;;;;;;;9.50;2.70;;;;;;;;;;4885717;29;20056;-76
2022/02/13 10:46:25;;;;;;;7.80;3.42;;;;;;;;;;4880943;29;20808;-76
2022/02/13 10:48:51;;;;;;;7.13;2.83;;;;;;;;;;4881973;29;20113;-76
2022/02/13 10:51:19;;;;;;;9.52;3.28;;;;;;;;;;4887516;29;20037;-76
2022/02/13 10:53:45;;;;;;;9.20;3.28;;;;;;;;;;4880427;29;20494;-76
2022/02/13 10:56:11;;;;;;;7.68;3.00;;;;;;;;;;4887046;29;20124;-76
2022/02/13 10:58:38;;;;;;;8.65;2.75;;;;;;;;;;4882374;29;20040;-74
2022/02/13 11:01:05;;;;;;;7.65;2.53;;;;;;;;;;4879368;29;20060;-74
2022/02/13 11:03:32;;;;;;;8.13;2.90;;;;;;;;;;4878517;29;20044;-75
2022/02/13 11:06:05;;;;;;;7.30;2.50;;;;;;;;;;4882686;29;20047;-76
2022/02/13 11:08:40;;;;;;;6.60;2.58;;;;;;;;;;4888856;29;20027;-75
2022/02/13 11:11:07;;;;;;;6.35;2.28;;;;;;;;;;4874816;29;20827;-75
2022/02/13 11:13:34;;;;;;;7.18;2.33;;;;;;;;;;4881830;29;20541;-76
2022/02/13 11:16:00;;;;;;;7.53;3.70;;;;;;;;;;4880993;29;20041;-76
2022/02/13 11:18:27;;;;;;;8.13;2.92;;;;;;;;;;4884779;29;20036;-75
2022/02/13 11:20:55;;;;;;;10.95;3.20;;;;;;;;;;4881923;29;20040;-76
2022/02/13 11:23:28;;;;;;;8.10;3.03;;;;;;;;;;4880597;29;20033;-74
2022/02/13 11:25:54;;;;;;;9.90;2.88;;;;;;;;;;4877794;29;20037;-74
2022/02/13 11:28:24;;;;;;;5.72;2.38;;;;;;;;;;4875801;29;20029;-76
2022/02/13 11:30:50;;;;;;;9.40;2.65;;;;;;;;;;4879976;29;20021;-76
2022/02/13 11:33:32;;;;;;;8.80;2.22;;;;;;;;;;4880427;29;20091;-74
2022/02/13 11:36:02;;;;;;;6.70;2.30;;;;;;;;;;4882078;29;20041;-76
2022/02/13 11:38:38;;;;;;;6.32;2.17;;;;;;;;;;4883123;29;20887;-74
2022/02/13 11:41:04;;;;;;;7.75;2.20;;;;;;;;;;4887660;29;20081;-74
2022/02/13 11:43:48;;;;;;;8.73;3.17;;;;;;;;;;4885870;29;20107;-75
2022/02/13 11:46:40;;;;;;;14.52;6.53;;;;;;;;;;4879004;29;20148;-75
2022/02/13 11:49:15;;;;;;;11.45;3.00;;;;;;;;;;4889144;29;20374;-75
2022/02/13 11:51:56;;;;;;;8.32;2.30;;;;;;;;;;4886001;29;20032;-75
2022/02/13 11:54:40;;;;;;;6.68;1.90;;;;;;;;;;4885670;29;20040;-74
2022/02/13 11:57:07;;;;;;;7.20;2.17;;;;;;;;;;4888265;29;20040;-74
2022/02/13 12:00:06;;;;;;;7.45;2.08;;;;;;;;;;4880807;29;20049;-75
2022/02/13 12:02:40;;;;;;;8.18;3.28;;;;;;;;;;4878605;29;20041;-74
2022/02/13 12:05:07;;;;;;;9.63;3.30;;;;;;;;;;4880112;29;20805;-74
2022/02/13 12:07:55;;;;;;;9.70;3.42;;;;;;;;;;4888515;29;20033;-74
2022/02/13 12:10:29;;;;;;;5.25;1.98;;;;;;;;;;4892984;29;20056;-74
2022/02/13 12:13:14;;;;;;;6.30;2.30;;;;;;;;;;4882872;29;20184;-74
2022/02/13 12:15:42;;;;;;;7.82;2.00;;;;;;;;;;4877913;29;20060;-74
2022/02/13 12:18:08;;;;;;;6.25;2.00;;;;;;;;;;4883566;29;20479;-74
2022/02/13 12:20:35;;;;;;;4.90;2.10;;;;;;;;;;4883566;29;20037;-74
2022/02/13 12:23:02;;;;;;;9.23;2.13;;;;;;;;;;4879340;29;20547;-74
2022/02/13 12:25:31;;;;;;;6.45;1.85;;;;;;;;;;4879948;29;20032;-75
2022/02/13 12:27:57;;;;;;;7.07;2.95;;;;;;;;;;4881678;29;20586;-75
2022/02/13 12:30:26;;;;;;;9.82;2.08;;;;;;;;;;4878969;29;20036;-75
2022/02/13 12:32:55;;;;;;;5.25;1.85;;;;;;;;;;4885936;29;20048;-74
2022/02/13 12:35:26;;;;;;;7.85;3.10;;;;;;;;;;4886538;29;20499;-74
2022/02/13 12:37:52;;;;;;;5.10;1.60;;;;;;;;;;4883358;29;20696;-74
2022/02/13 12:40:22;;;;;;;5.68;1.15;;;;;;;;;;4877608;29;20081;-74
2022/02/13 12:42:49;;;;;;;4.88;1.00;;;;;;;;;;4880905;29;20044;-74
2022/02/13 12:45:16;;;;;;;5.60;1.13;;;;;;;;;;4877112;29;20036;-74
2022/02/13 12:47:43;;;;;;;5.13;1.05;;;;;;;;;;4879808;29;20097;-74
2022/02/13 12:50:12;;;;;;;2.60;0.90;;;;;;;;;;4885798;29;20021;-74
2022/02/13 12:52:38;;;;;;;5.30;1.20;;;;;;;;;;4880601;29;20056;-74
2022/02/13 12:55:12;;;;;;;8.65;1.35;;;;;;;;;;4888055;29;20040;-74
2022/02/13 12:57:39;;;;;;;7.40;1.58;;;;;;;;;;4884003;29;20041;-74
2022/02/13 13:00:06;;;;;;;4.78;1.23;;;;;;;;;;4884102;29;20538;-75
2022/02/13 13:02:33;;;;;;;4.82;1.10;;;;;;;;;;4889776;29;20108;-74
2022/02/13 13:05:17;;;;;;;7.30;1.70;;;;;;;;;;4887928;29;20875;-74
2022/02/13 13:07:44;;;;;;;4.60;1.30;;;;;;;;;;4883453;29;20043;-74
2022/02/13 13:10:27;;;;;;;3.10;0.85;;;;;;;;;;4879902;29;20025;-74
2022/02/13 13:13:03;;;;;;;5.68;1.67;;;;;;;;;;4879627;29;20602;-74
2022/02/13 13:15:29;;;;;;;4.15;0.93;;;;;;;;;;4882865;29;20025;-74
2022/02/13 13:17:55;;;;;;;3.90;0.90;;;;;;;;;;4877303;29;20076;-74
2022/02/13 13:20:21;;;;;;;6.18;1.90;;;;;;;;;;4881170;29;20033;-74
2022/02/13 13:22:48;;;;;;;7.15;1.90;;;;;;;;;;4879182;29;20117;-74
2022/02/13 13:25:28;;;;;;;4.60;1.73;;;;;;;;;;4880277;29;20029;-74
2022/02/13 13:28:10;;;;;;;5.20;1.27;;;;;;;;;;4880387;29;20049;-74
2022/02/13 13:30:36;;;;;;;3.38;0.80;;;;;;;;;;4882894;29;20036;-74
2022/02/13 13:33:03;;;;;;;6.93;2.25;;;;;;;;;;4877673;29;20036;-74
2022/02/13 13:35:29;;;;;;;5.78;1.73;;;;;;;;;;4883706;29;20051;-74
2022/02/13 13:37:55;;;;;;;4.97;1.20;;;;;;;;;;4883417;29;20167;-74
2022/02/13 13:40:23;;;;;;;6.28;3.17;;;;;;;;;;4889033;29;20462;-74
2022/02/13 13:42:57;;;;;;;5.10;1.70;;;;;;;;;;4882426;29;20639;-74
2022/02/13 13:45:31;;;;;;;3.45;1.10;;;;;;;;;;4879296;29;20037;-74
2022/02/13 13:47:57;;;;;;;4.55;1.20;;;;;;;;;;4879628;29;20257;-74
2022/02/13 13:50:24;;;;;;;4.72;0.98;;;;;;;;;;4883091;29;20107;-74
2022/02/13 13:52:50;;;;;;;4.30;0.80;;;;;;;;;;4879785;29;20097;-74
2022/02/13 13:55:17;;;;;;;3.03;0.82;;;;;;;;;;4876054;29;20033;-74
2022/02/13 13:57:43;;;;;;;3.78;1.15;;;;;;;;;;4882884;29;20068;-74
2022/02/13 14:00:10;;;;;;;3.65;1.00;;;;;;;;;;4881873;29;20423;-74
2022/02/13 14:02:44;;;;;;;5.82;1.65;;;;;;;;;;4885428;29;20056;-74
2022/02/13 14:05:10;;;;;;;8.52;1.02;;;;;;;;;;4893546;29;20474;-75
2022/02/13 14:07:36;;;;;;;4.47;1.25;;;;;;;;;;4881372;29;20044;-74
2022/02/13 14:10:03;;;;;;;4.07;1.30;;;;;;;;;;4884438;29;20032;-74
2022/02/13 14:12:29;;;;;;;6.32;2.00;;;;;;;;;;4876641;29;20037;-74
2022/02/13 14:14:55;;;;;;;5.38;1.10;;;;;;;;;;4889084;29;20060;-74
2022/02/13 14:17:21;;;;;;;2.63;0.95;;;;;;;;;;4893819;29;20048;-74
2022/02/13 14:19:47;;;;;;;5.22;1.92;;;;;;;;;;4883000;29;20033;-74
2022/02/13 14:22:13;;;;;;;3.75;0.90;;;;;;;;;;4882689;29;20085;-74
2022/02/13 14:24:39;;;;;;;3.30;0.80;;;;;;;;;;4881738;29;20037;-74
2022/02/13 14:27:05;;;;;;;3.97;1.00;;;;;;;;;;4888430;29;20139;-74
2022/02/13 14:29:31;;;;;;;4.50;1.92;;;;;;;;;;4886404;29;20052;-74
2022/02/13 14:31:58;;;;;;;8.07;1.83;;;;;;;;;;4886598;29;20037;-74
2022/02/13 14:34:26;;;;;;;6.50;2.38;;;;;;;;;;4877743;29;20432;-74